Time,TemperatureF,DewpointF,PressureIn,WindDirection,WindDirectionDegrees,WindSpeedMPH,WindSpeedGustMPH,Humidity,HourlyPrecipIn,Conditions,Clouds,dailyrainin,SoftwareType,DateUTC
2013-10-19 00:10:00,35.0,32.0,30.08,North,0,2.0,2.0,87,0.00,,,0.19,,2013-10-19 05:10:00,
2013-10-19 00:42:00,35.0,32.0,30.08,North,0,2.0,2.0,87,0.00,,,0.19,,2013-10-19 05:42:00,
2013-10-19 00:52:00,35.0,32.0,30.08,North,0,2.0,2.0,87,0.00,,,0.19,,2013-10-19 05:52:00,
2013-10-19 01:02:00,35.0,32.0,30.08,North,0,2.0,2.0,87,0.00,,,0.19,,2013-10-19 06:02:00,
2013-10-19 01:40:00,35.0,32.0,30.05,SW,225,4.0,4.0,87,0.00,,,0.19,,2013-10-19 06:40:00,
2013-10-19 01:42:00,35.0,32.0,30.05,NNW,338,5.0,5.0,87,0.00,,,0.19,,2013-10-19 06:42:00,
2013-10-19 01:52:00,35.0,32.0,30.05,NNW,338,5.0,5.0,87,0.00,,,0.19,,2013-10-19 06:52:00,
2013-10-19 02:11:00,35.0,32.0,30.05,SW,225,4.0,4.0,87,0.00,,,0.19,,2013-10-19 07:11:00,
2013-10-19 02:22:00,35.0,32.0,30.05,SW,225,4.0,4.0,87,0.00,,,0.19,,2013-10-19 07:22:00,
2013-10-19 02:32:00,35.0,32.0,30.05,SW,225,4.0,4.0,87,0.00,,,0.19,,2013-10-19 07:32:00,
2013-10-19 03:52:00,34.0,31.0,30.03,SSW,203,0.0,0.0,87,0.00,,,0.19,,2013-10-19 08:52:00,
2013-10-19 04:01:00,34.0,31.0,30.03,SSW,203,0.0,0.0,87,0.00,,,0.19,,2013-10-19 09:01:00,
2013-10-19 04:10:00,34.0,31.0,30.02,WSW,248,3.0,3.0,87,0.00,,,0.19,,2013-10-19 09:10:00,
2013-10-19 04:12:00,34.0,31.0,30.03,SSW,203,0.0,0.0,87,0.00,,,0.19,,2013-10-19 09:12:00,
2013-10-19 04:21:00,34.0,31.0,30.03,SSW,203,0.0,0.0,87,0.00,,,0.19,,2013-10-19 09:21:00,
2013-10-19 04:43:00,34.0,31.0,30.02,WSW,248,3.0,3.0,87,0.00,,,0.19,,2013-10-19 09:43:00,
2013-10-19 04:54:00,34.0,31.0,30.02,WSW,248,3.0,3.0,87,0.00,,,0.19,,2013-10-19 09:54:00,
2013-10-19 05:03:00,34.0,31.0,30.02,WSW,248,3.0,3.0,87,0.00,,,0.19,,2013-10-19 10:03:00,
2013-10-19 05:10:00,34.0,31.0,30.01,SW,225,1.0,1.0,87,0.00,,,0.19,,2013-10-19 10:10:00,
2013-10-19 05:42:00,34.0,31.0,30.01,SW,225,1.0,1.0,87,0.00,,,0.19,,2013-10-19 10:42:00,
2013-10-19 05:53:00,34.0,31.0,30.01,SW,225,1.0,1.0,87,0.00,,,0.19,,2013-10-19 10:53:00,
2013-10-19 06:03:00,34.0,31.0,30.01,SW,225,1.0,1.0,87,0.00,,,0.19,,2013-10-19 11:03:00,
2013-10-19 06:42:00,34.0,31.0,30.01,South,180,1.0,1.0,87,0.00,,,0.19,,2013-10-19 11:42:00,
2013-10-19 06:52:00,34.0,31.0,30.01,South,180,1.0,1.0,87,0.00,,,0.19,,2013-10-19 11:52:00,
2013-10-19 07:12:00,33.0,30.0,30.01,SE,135,0.0,0.0,87,0.00,,,0.19,,2013-10-19 12:12:00,
2013-10-19 07:22:00,33.0,30.0,30.01,SE,135,0.0,0.0,87,0.00,,,0.19,,2013-10-19 12:22:00,
2013-10-19 07:40:00,32.0,28.0,30.00,ESE,113,0.0,0.0,86,0.01,,,0.20,,2013-10-19 12:40:00,
2013-10-19 07:42:00,32.0,28.0,30.00,SE,135,1.0,1.0,86,0.00,,,0.19,,2013-10-19 12:42:00,
2013-10-19 07:52:00,32.0,28.0,30.00,SE,135,1.0,1.0,86,0.00,,,0.19,,2013-10-19 12:52:00,
2013-10-19 08:12:00,32.0,28.0,30.00,ESE,113,0.0,0.0,86,0.01,,,0.20,,2013-10-19 13:12:00,
2013-10-19 08:22:00,32.0,28.0,30.00,ESE,113,0.0,0.0,86,0.01,,,0.20,,2013-10-19 13:22:00,
2013-10-19 08:32:00,32.0,28.0,30.00,ESE,113,0.0,0.0,86,0.01,,,0.20,,2013-10-19 13:32:00,
2013-10-19 09:40:00,35.0,32.0,30.01,SW,225,0.0,0.0,88,0.00,,,0.20,,2013-10-19 14:40:00,
2013-10-19 10:11:00,35.0,32.0,30.01,SW,225,0.0,0.0,88,0.00,,,0.20,,2013-10-19 15:11:00,
2013-10-19 10:22:00,35.0,32.0,30.01,SW,225,0.0,0.0,88,0.00,,,0.20,,2013-10-19 15:22:00,
2013-10-19 12:10:00,47.0,41.0,29.98,SE,135,1.0,1.0,78,0.00,,,0.20,,2013-10-19 17:10:00,
2013-10-19 12:13:00,44.0,38.0,29.98,WSW,248,1.0,1.0,80,0.00,,,0.20,,2013-10-19 17:13:00,
2013-10-19 12:22:00,44.0,38.0,29.98,WSW,248,1.0,1.0,80,0.00,,,0.20,,2013-10-19 17:22:00,
2013-10-19 12:43:00,47.0,41.0,29.98,SE,135,1.0,1.0,78,0.00,,,0.20,,2013-10-19 17:43:00,
2013-10-19 12:52:00,47.0,41.0,29.98,SE,135,1.0,1.0,78,0.00,,,0.20,,2013-10-19 17:52:00,
2013-10-19 13:02:00,47.0,41.0,29.98,SE,135,1.0,1.0,78,0.00,,,0.20,,2013-10-19 18:02:00,
2013-10-19 15:12:00,57.0,39.0,29.92,SW,225,4.0,4.0,51,0.00,,,0.08,,2013-10-19 20:12:00,
2013-10-19 15:22:00,57.0,39.0,29.92,SW,225,4.0,4.0,51,0.00,,,0.08,,2013-10-19 20:22:00,
2013-10-19 15:42:00,58.0,39.0,29.91,WSW,248,5.0,5.0,49,0.00,,,0.08,,2013-10-19 20:42:00,
2013-10-19 15:52:00,58.0,39.0,29.91,WSW,248,5.0,5.0,49,0.00,,,0.08,,2013-10-19 20:52:00,
2013-10-19 16:10:00,60.0,39.0,29.89,SSW,203,6.0,6.0,46,0.00,,,0.05,,2013-10-19 21:10:00,
2013-10-19 16:11:00,59.0,38.0,29.90,WSW,248,6.0,6.0,46,0.00,,,0.05,,2013-10-19 21:11:00,
2013-10-19 16:21:00,59.0,38.0,29.90,WSW,248,6.0,6.0,46,0.00,,,0.05,,2013-10-19 21:21:00,
2013-10-19 16:44:00,60.0,39.0,29.89,SSW,203,6.0,6.0,46,0.00,,,0.05,,2013-10-19 21:44:00,
2013-10-19 16:54:00,60.0,39.0,29.89,SSW,203,6.0,6.0,46,0.00,,,0.05,,2013-10-19 21:54:00,
2013-10-19 17:04:00,60.0,39.0,29.89,SSW,203,6.0,6.0,46,0.00,,,0.05,,2013-10-19 22:04:00,
2013-10-19 19:11:00,56.0,39.0,29.87,West,270,0.0,0.0,53,0.00,,,0.01,,2013-10-20 00:11:00,
2013-10-19 19:22:00,56.0,39.0,29.87,West,270,0.0,0.0,53,0.00,,,0.01,,2013-10-20 00:22:00,
2013-10-19 19:42:00,51.0,37.0,29.87,WSW,248,0.0,0.0,58,0.00,,,0.01,,2013-10-20 00:42:00,
2013-10-19 19:52:00,51.0,37.0,29.87,WSW,248,0.0,0.0,58,0.00,,,0.01,,2013-10-20 00:52:00,
2013-10-19 20:10:00,45.0,35.0,29.88,WSW,248,0.0,0.0,67,0.00,,,0.01,,2013-10-20 01:10:00,
2013-10-19 20:11:00,48.0,36.0,29.88,WSW,248,0.0,0.0,64,0.00,,,0.01,,2013-10-20 01:11:00,
2013-10-19 20:22:00,48.0,36.0,29.88,WSW,248,0.0,0.0,64,0.00,,,0.01,,2013-10-20 01:22:00,
2013-10-19 20:42:00,45.0,35.0,29.88,WSW,248,0.0,0.0,67,0.00,,,0.01,,2013-10-20 01:42:00,
2013-10-19 20:52:00,45.0,35.0,29.88,WSW,248,0.0,0.0,67,0.00,,,0.01,,2013-10-20 01:52:00,
2013-10-19 21:02:00,45.0,35.0,29.88,WSW,248,0.0,0.0,67,0.00,,,0.01,,2013-10-20 02:02:00,
2013-10-19 23:03:00,-999.0,-99.9,29.87,SSE,158,0.0,0.0,-999,-99.99,,,-99.99,,2013-10-20 04:03:00,